Time;durP1;ratioP1;P1;durP2;ratioP2;P2;SDS_P1;SDS_P2;PMS_P1;PMS_P2;Temp;Humidity;BMP_temperature;BMP_pressure;BME280_temperature;BME280_humidity;BME280_pressure;Samples;Min_cycle;Max_cycle;Signal;HPM_P1;HPM_P2
2024/01/24 00:01:13;;;;;;;9.02;2.17;;;11.40;99.90;;;;;;7340896;32;20099;-57
2024/01/24 00:05:15;;;;;;;4.68;1.65;;;11.40;99.90;;;;;;7345152;32;20363;-57
2024/01/24 00:09:17;;;;;;;13.23;2.53;;;11.40;99.90;;;;;;7341148;32;20111;-58
2024/01/24 00:13:19;;;;;;;8.15;2.25;;;11.40;99.90;;;;;;7345117;32;20178;-57
2024/01/24 00:17:21;;;;;;;8.02;1.70;;;11.50;99.90;;;;;;7345058;32;21188;-58
2024/01/24 00:21:23;;;;;;;11.00;2.00;;;11.50;99.90;;;;;;7340407;32;20165;-57
2024/01/24 00:25:24;;;;;;;11.20;2.40;;;11.60;99.90;;;;;;7341523;32;20544;-58
2024/01/24 00:29:26;;;;;;;10.52;2.30;;;11.60;99.90;;;;;;7344130;32;20185;-57
2024/01/24 00:33:31;;;;;;;5.30;1.67;;;11.60;99.90;;;;;;7339433;32;20592;-57
2024/01/24 00:37:33;;;;;;;5.65;1.83;;;11.70;99.90;;;;;;7339903;32;20107;-56
2024/01/24 00:41:35;;;;;;;5.75;1.75;;;11.70;99.90;;;;;;7346097;32;20270;-57
2024/01/24 00:45:37;;;;;;;6.03;1.70;;;11.70;99.90;;;;;;7340365;32;20194;-57
2024/01/24 00:49:38;;;;;;;7.03;2.03;;;11.80;99.90;;;;;;7339811;32;20407;-57
2024/01/24 00:53:40;;;;;;;6.68;2.05;;;11.80;99.90;;;;;;7340824;32;20327;-57
2024/01/24 00:57:42;;;;;;;7.93;1.80;;;11.80;99.90;;;;;;7341043;32;20289;-56
2024/01/24 01:01:44;;;;;;;9.32;1.67;;;11.80;99.90;;;;;;7344723;32;20156;-57
2024/01/24 01:05:45;;;;;;;7.30;1.90;;;11.90;99.90;;;;;;7346665;32;20226;-57
2024/01/24 01:09:47;;;;;;;4.80;2.20;;;11.90;99.90;;;;;;7341118;32;20600;-56
2024/01/24 01:13:49;;;;;;;6.32;1.62;;;12.00;99.90;;;;;;7346482;32;20138;-57
2024/01/24 01:17:51;;;;;;;6.07;1.65;;;12.00;99.90;;;;;;7343811;32;20202;-58
2024/01/24 01:21:53;;;;;;;8.27;1.87;;;12.10;99.90;;;;;;7339792;32;20160;-58
2024/01/24 01:25:55;;;;;;;8.60;1.90;;;12.20;99.90;;;;;;7345331;32;20477;-57
2024/01/24 01:29:56;;;;;;;6.53;1.73;;;12.20;99.90;;;;;;7345569;32;20558;-58
2024/01/24 01:34:00;;;;;;;3.40;1.20;;;12.30;99.90;;;;;;7342737;32;20118;-56
2024/01/24 01:38:02;;;;;;;8.23;1.58;;;12.30;99.90;;;;;;7343009;32;20129;-57
2024/01/24 01:42:04;;;;;;;7.82;1.30;;;12.30;99.90;;;;;;7344113;32;20579;-57
2024/01/24 01:46:11;;;;;;;6.50;1.15;;;12.30;99.90;;;;;;7345141;32;20663;-58
2024/01/24 01:50:14;;;;;;;3.58;1.23;;;12.40;99.90;;;;;;7341070;32;20116;-57
2024/01/24 01:54:16;;;;;;;4.82;1.30;;;12.50;99.90;;;;;;7338191;32;20300;-57
2024/01/24 01:58:18;;;;;;;3.40;0.90;;;12.50;99.90;;;;;;7342688;32;20113;-57
2024/01/24 02:02:20;;;;;;;3.47;0.90;;;12.60;99.90;;;;;;7336911;32;20287;-58
2024/01/24 02:06:22;;;;;;;1.98;0.95;;;12.60;99.90;;;;;;7338997;32;20690;-57
2024/01/24 02:10:24;;;;;;;3.05;0.90;;;12.60;99.90;;;;;;7340558;32;20218;-57
2024/01/24 02:14:27;;;;;;;2.25;0.65;;;12.70;99.90;;;;;;7338678;32;20195;-57
2024/01/24 02:18:29;;;;;;;2.53;0.60;;;12.80;99.90;;;;;;7343312;32;20125;-57
2024/01/24 02:22:31;;;;;;;2.37;1.25;;;12.80;99.90;;;;;;7343384;32;20129;-57
2024/01/24 02:26:33;;;;;;;2.40;0.77;;;12.80;99.90;;;;;;7340996;32;20439;-56
2024/01/24 02:30:35;;;;;;;1.25;0.60;;;12.90;99.90;;;;;;7339625;32;20215;-57
2024/01/24 02:34:37;;;;;;;3.87;1.00;;;12.90;99.90;;;;;;7340111;32;20122;-57
2024/01/24 02:38:39;;;;;;;2.25;0.52;;;12.90;99.90;;;;;;7345772;32;20129;-56
2024/01/24 02:42:40;;;;;;;3.65;0.90;;;12.90;99.90;;;;;;7339238;32;20115;-57
2024/01/24 02:46:42;;;;;;;1.15;0.50;;;13.00;99.90;;;;;;7341631;32;20095;-58
2024/01/24 02:50:44;;;;;;;1.67;0.70;;;13.00;99.90;;;;;;7336564;32;20655;-58
2024/01/24 02:54:46;;;;;;;1.17;0.60;;;13.00;99.90;;;;;;7345712;32;20624;-56
2024/01/24 02:58:48;;;;;;;2.33;0.70;;;13.00;99.90;;;;;;7344811;32;20215;-57
2024/01/24 03:02:49;;;;;;;0.98;0.60;;;13.00;99.90;;;;;;7349419;32;20123;-57
2024/01/24 03:06:51;;;;;;;0.95;0.50;;;13.00;99.90;;;;;;7347874;32;20206;-57
2024/01/24 03:10:53;;;;;;;2.22;0.45;;;13.00;99.90;;;;;;7347869;32;20121;-57
2024/01/24 03:14:55;;;;;;;0.95;0.50;;;13.00;99.90;;;;;;7345048;32;20174;-57
2024/01/24 03:18:56;;;;;;;0.93;0.40;;;12.90;99.90;;;;;;7345026;32;20677;-57
2024/01/24 03:22:58;;;;;;;3.35;0.70;;;12.90;99.90;;;;;;7347468;32;20220;-56
2024/01/24 03:27:04;;;;;;;2.70;0.60;;;12.90;99.90;;;;;;7343521;32;22105;-56
2024/01/24 03:31:05;;;;;;;0.60;0.35;;;12.90;99.90;;;;;;7346775;32;20123;-57
2024/01/24 03:35:09;;;;;;;0.90;0.30;;;12.90;99.90;;;;;;7345067;32;20134;-56
2024/01/24 03:39:12;;;;;;;1.30;0.43;;;12.80;99.90;;;;;;7344593;32;20457;-56
2024/01/24 03:43:13;;;;;;;1.15;0.40;;;12.80;99.90;;;;;;7343781;32;20103;-54
2024/01/24 03:47:15;;;;;;;0.93;0.32;;;12.80;99.90;;;;;;7341921;32;20119;-57
2024/01/24 03:51:17;;;;;;;0.80;0.50;;;12.80;99.90;;;;;;7336545;32;20454;-56
2024/01/24 03:55:19;;;;;;;0.77;0.40;;;12.70;99.90;;;;;;7348886;32;20211;-57
2024/01/24 03:59:20;;;;;;;0.90;0.40;;;12.70;99.90;;;;;;7346235;32;20111;-57
2024/01/24 04:03:22;;;;;;;1.60;0.20;;;12.60;99.90;;;;;;7338976;32;20107;-56
2024/01/24 04:07:24;;;;;;;0.70;0.22;;;12.50;99.90;;;;;;7344426;32;20194;-58
2024/01/24 04:11:26;;;;;;;0.35;0.25;;;12.40;99.90;;;;;;7344105;32;20138;-58
2024/01/24 04:15:28;;;;;;;1.92;0.40;;;12.30;99.90;;;;;;7337832;32;20758;-57
2024/01/24 04:19:30;;;;;;;0.25;0.20;;;12.30;99.90;;;;;;7343803;32;20134;-57
2024/01/24 04:23:32;;;;;;;0.45;0.20;;;12.20;99.90;;;;;;7346339;32;20353;-57
2024/01/24 04:27:34;;;;;;;0.40;0.20;;;12.10;99.90;;;;;;7341153;32;20278;-57
2024/01/24 04:31:36;;;;;;;0.40;0.13;;;12.10;99.90;;;;;;7345362;32;20171;-58
2024/01/24 04:35:37;;;;;;;0.37;0.30;;;12.10;99.90;;;;;;7343062;32;20218;-58
2024/01/24 04:39:39;;;;;;;0.52;0.30;;;12.10;99.90;;;;;;7342260;32;20213;-57
2024/01/24 04:43:41;;;;;;;1.48;0.20;;;12.10;99.90;;;;;;7345288;32;20172;-56
2024/01/24 04:47:44;;;;;;;2.10;0.20;;;12.10;99.90;;;;;;7344176;32;20290;-57
2024/01/24 04:51:45;;;;;;;0.90;0.20;;;12.10;99.90;;;;;;7339557;32;20250;-57
2024/01/24 04:55:47;;;;;;;3.67;0.43;;;11.90;99.90;;;;;;7339081;32;20236;-58
2024/01/24 04:59:49;;;;;;;3.92;0.62;;;11.60;99.90;;;;;;7340584;32;20492;-55
2024/01/24 05:04:11;;;;;;;5.87;0.77;;;11.60;99.90;;;;;;7341448;32;20099;-57
2024/01/24 05:08:13;;;;;;;3.53;0.85;;;11.70;99.90;;;;;;7346349;32;20677;-57
2024/01/24 05:12:15;;;;;;;6.95;0.88;;;11.60;99.90;;;;;;7343358;32;20815;-57
2024/01/24 05:16:17;;;;;;;4.90;0.80;;;11.70;99.90;;;;;;7343986;32;20116;-58
2024/01/24 05:20:18;;;;;;;9.52;1.10;;;11.80;99.90;;;;;;7349978;32;20107;-57
2024/01/24 05:24:20;;;;;;;10.77;1.40;;;11.70;99.90;;;;;;7340463;32;20332;-57
2024/01/24 05:28:22;;;;;;;8.90;1.12;;;11.80;99.90;;;;;;7341500;32;20240;-57
2024/01/24 05:32:23;;;;;;;9.95;1.70;;;11.90;99.90;;;;;;7342657;32;20833;-56
2024/01/24 05:36:25;;;;;;;7.30;0.85;;;11.80;99.90;;;;;;7341954;32;20174;-57
2024/01/24 05:40:27;;;;;;;7.55;1.02;;;11.90;99.90;;;;;;7343694;32;20221;-58
2024/01/24 05:44:29;;;;;;;7.93;1.02;;;11.90;99.90;;;;;;7340347;32;20201;-58
2024/01/24 05:48:31;;;;;;;8.40;1.10;;;11.80;99.90;;;;;;7342527;32;20103;-57
2024/01/24 05:52:33;;;;;;;5.57;1.30;;;11.80;99.90;;;;;;7333339;32;20438;-55
2024/01/24 05:56:35;;;;;;;6.62;1.95;;;11.80;99.90;;;;;;7339498;32;20201;-58
2024/01/24 06:00:37;;;;;;;12.32;1.65;;;11.80;99.90;;;;;;7331235;32;20201;-58
2024/01/24 06:04:39;;;;;;;9.63;2.10;;;11.80;99.90;;;;;;7338311;32;20969;-57
2024/01/24 06:08:43;;;;;;;11.88;2.28;;;11.80;99.90;;;;;;7341400;32;20753;-56
2024/01/24 06:12:45;;;;;;;12.65;1.92;;;11.80;99.90;;;;;;7340142;32;20218;-56
2024/01/24 06:16:47;;;;;;;8.48;1.55;;;11.80;99.90;;;;;;7337035;32;20496;-57
2024/01/24 06:20:49;;;;;;;15.75;2.00;;;11.90;99.90;;;;;;7336390;32;20148;-57
2024/01/24 06:24:51;;;;;;;10.38;1.42;;;11.80;99.90;;;;;;7337343;32;20230;-57
2024/01/24 06:28:52;;;;;;;12.90;2.20;;;11.90;99.90;;;;;;7341522;32;20521;-57
2024/01/24 06:32:54;;;;;;;11.45;1.65;;;11.80;99.90;;;;;;7340066;32;20766;-57
2024/01/24 06:36:56;;;;;;;12.07;3.50;;;11.90;99.90;;;;;;7338399;32;20498;-57
2024/01/24 06:40:58;;;;;;;13.50;2.47;;;11.80;99.90;;;;;;7347351;32;20232;-57
2024/01/24 06:45:00;;;;;;;18.83;2.53;;;11.80;99.90;;;;;;7344204;32;20148;-57
2024/01/24 06:49:01;;;;;;;11.60;1.60;;;11.90;99.90;;;;;;7347322;32;20594;-59
2024/01/24 06:53:05;;;;;;;17.95;2.83;;;11.80;99.90;;;;;;7343288;32;20130;-56
2024/01/24 06:57:07;;;;;;;15.32;2.62;;;11.70;99.90;;;;;;7347714;32;20092;-58
2024/01/24 07:01:09;;;;;;;21.65;2.78;;;11.80;99.90;;;;;;7339654;32;20111;-57
2024/01/24 07:05:11;;;;;;;18.45;2.58;;;11.70;99.90;;;;;;7340058;32;20616;-57
2024/01/24 07:09:12;;;;;;;20.55;3.33;;;11.70;99.90;;;;;;7344224;32;20259;-57
2024/01/24 07:13:14;;;;;;;27.62;3.80;;;11.60;99.90;;;;;;7344175;32;20414;-57
2024/01/24 07:17:16;;;;;;;25.40;3.97;;;11.60;99.90;;;;;;7339108;32;20728;-57
2024/01/24 07:21:18;;;;;;;20.00;3.28;;;11.60;99.90;;;;;;7340843;32;20252;-57
2024/01/24 07:25:21;;;;;;;21.65;2.83;;;11.60;99.90;;;;;;7334730;32;20226;-58
2024/01/24 07:29:23;;;;;;;22.23;3.90;;;11.60;99.90;;;;;;7344747;32;20257;-57
2024/01/24 07:33:26;;;;;;;16.92;3.83;;;11.60;99.90;;;;;;7343889;32;20138;-58
2024/01/24 07:37:28;;;;;;;22.30;3.67;;;11.60;99.90;;;;;;7337558;32;20245;-57
2024/01/24 07:41:29;;;;;;;23.08;3.67;;;11.50;99.90;;;;;;7337140;32;20686;-59
2024/01/24 07:45:31;;;;;;;27.87;3.62;;;11.50;99.90;;;;;;7339982;32;20198;-58
2024/01/24 07:49:33;;;;;;;25.20;4.43;;;11.50;99.90;;;;;;7337883;32;20122;-59
2024/01/24 07:53:42;;;;;;;21.00;3.55;;;11.40;99.90;;;;;;7343101;32;20119;-59
2024/01/24 07:57:43;;;;;;;21.62;3.33;;;11.40;99.90;;;;;;7339757;32;20103;-58
2024/01/24 08:01:46;;;;;;;24.23;3.47;;;11.30;99.90;;;;;;7345223;32;20198;-58
2024/01/24 08:05:48;;;;;;;21.90;4.00;;;11.30;99.90;;;;;;7346647;32;20221;-58
2024/01/24 08:09:50;;;;;;;23.55;3.40;;;11.30;99.90;;;;;;7343380;32;20637;-57
2024/01/24 08:13:52;;;;;;;20.10;3.75;;;11.30;99.90;;;;;;7347285;32;20551;-58
2024/01/24 08:17:54;;;;;;;19.27;3.65;;;11.30;99.90;;;;;;7347325;32;20143;-58
2024/01/24 08:21:56;;;;;;;21.77;3.92;;;11.20;99.90;;;;;;7345526;32;20452;-60
2024/01/24 08:25:58;;;;;;;22.30;3.62;;;11.20;99.90;;;;;;7344500;32;20325;-57
2024/01/24 08:30:00;;;;;;;19.27;3.20;;;11.10;99.90;;;;;;7343445;32;20491;-59
2024/01/24 08:34:02;;;;;;;18.12;3.50;;;11.20;99.90;;;;;;7334405;32;20222;-56
2024/01/24 08:38:04;;;;;;;17.85;3.47;;;11.20;99.90;;;;;;7341230;32;20488;-59
2024/01/24 08:42:06;;;;;;;23.98;4.22;;;11.10;99.90;;;;;;7345972;32;20138;-56
2024/01/24 08:46:08;;;;;;;23.40;4.03;;;11.20;99.90;;;;;;7346629;32;20218;-58
2024/01/24 08:50:10;;;;;;;23.67;4.55;;;11.10;99.90;;;;;;7341892;32;20182;-58
2024/01/24 08:54:12;;;;;;;28.98;4.28;;;11.00;99.90;;;;;;7339347;32;20103;-58
2024/01/24 08:58:14;;;;;;;29.27;4.22;;;11.00;99.90;;;;;;7336174;32;20132;-58
2024/01/24 09:02:16;;;;;;;22.23;4.10;;;10.90;99.90;;;;;;7339126;32;20099;-59
2024/01/24 09:06:20;;;;;;;25.50;4.37;;;11.00;99.90;;;;;;7342992;32;20894;-59
2024/01/24 09:10:22;;;;;;;20.17;3.42;;;11.00;99.90;;;;;;7341420;32;20132;-58
2024/01/24 09:14:25;;;;;;;32.17;4.93;;;11.10;99.90;;;;;;7341317;32;20241;-58
2024/01/24 09:18:27;;;;;;;27.25;4.87;;;11.20;99.90;;;;;;7336422;32;20179;-59
2024/01/24 09:22:29;;;;;;;20.85;3.47;;;11.10;99.90;;;;;;7337728;32;20143;-58
2024/01/24 09:26:31;;;;;;;26.40;4.70;;;11.20;99.90;;;;;;7341271;32;20640;-58
2024/01/24 09:30:33;;;;;;;29.80;4.57;;;11.10;99.90;;;;;;7340241;32;20138;-57
2024/01/24 09:34:34;;;;;;;21.48;4.15;;;11.10;99.90;;;;;;7341241;32;20115;-59
2024/01/24 09:38:37;;;;;;;26.50;4.32;;;11.10;99.90;;;;;;7335250;32;20269;-59
2024/01/24 09:42:43;;;;;;;27.62;4.12;;;11.10;99.90;;;;;;7343345;32;21929;-59
2024/01/24 09:46:48;;;;;;;26.77;4.30;;;11.20;99.90;;;;;;7343015;32;20144;-59
2024/01/24 09:50:49;;;;;;;24.48;4.47;;;11.20;99.90;;;;;;7344397;32;20348;-58
2024/01/24 09:54:59;;;;;;;27.90;5.37;;;11.20;99.90;;;;;;7342706;32;20157;-59
2024/01/24 09:59:05;;;;;;;26.33;4.40;;;11.30;99.90;;;;;;7341425;32;20115;-59
2024/01/24 10:03:07;;;;;;;27.95;3.83;;;11.40;99.90;;;;;;7340540;32;20651;-59
2024/01/24 10:07:10;;;;;;;26.58;3.95;;;11.40;99.90;;;;;;7340830;32;20091;-58
2024/01/24 10:11:12;;;;;;;26.67;4.43;;;11.30;99.90;;;;;;7339922;32;20194;-58
2024/01/24 10:15:14;;;;;;;24.23;4.30;;;11.30;99.90;;;;;;7343271;32;20251;-58
2024/01/24 10:19:21;;;;;;;30.60;4.57;;;11.40;99.90;;;;;;7343983;32;20137;-58
2024/01/24 10:23:23;;;;;;;23.08;4.12;;;11.30;99.90;;;;;;7346175;32;20118;-57
2024/01/24 10:27:26;;;;;;;24.77;4.43;;;11.30;99.90;;;;;;7336873;32;20131;-59
2024/01/24 10:31:30;;;;;;;24.17;3.90;;;11.20;99.90;;;;;;7336582;32;20104;-58
2024/01/24 10:35:34;;;;;;;24.40;4.28;;;11.30;99.90;;;;;;7336620;32;20130;-59
2024/01/24 10:39:37;;;;;;;26.00;3.87;;;11.30;99.90;;;;;;7338623;32;20190;-59
2024/01/24 10:43:46;;;;;;;24.77;4.43;;;11.30;99.90;;;;;;7340919;32;20517;-58
2024/01/24 10:47:48;;;;;;;24.67;4.18;;;11.30;99.90;;;;;;7330693;32;20161;-58
2024/01/24 10:51:51;;;;;;;34.63;5.18;;;11.40;99.90;;;;;;7337674;32;20214;-59
2024/01/24 10:55:54;;;;;;;40.35;4.85;;;11.40;99.90;;;;;;7337552;32;20175;-59
2024/01/24 10:59:57;;;;;;;24.90;3.70;;;11.40;99.90;;;;;;7341282;32;20206;-60
2024/01/24 11:04:00;;;;;;;22.17;3.62;;;11.40;99.90;;;;;;7339434;32;20297;-59
2024/01/24 11:08:08;;;;;;;26.87;4.93;;;11.40;99.90;;;;;;7338785;32;20115;-59
2024/01/24 11:12:10;;;;;;;33.80;5.82;;;11.40;99.90;;;;;;7344009;32;20126;-59
2024/01/24 11:16:31;;;;;;;23.62;4.40;;;11.50;99.90;;;;;;7338958;32;20341;-59
2024/01/24 11:20:46;;;;;;;20.00;4.22;;;11.50;99.90;;;;;;7347221;32;20226;-59
2024/01/24 11:24:48;;;;;;;24.35;4.50;;;11.60;99.90;;;;;;7345229;32;20246;-60
2024/01/24 11:29:10;;;;;;;31.60;5.35;;;11.50;99.90;;;;;;7344591;32;20517;-59
2024/01/24 11:33:16;;;;;;;25.80;4.50;;;11.50;99.90;;;;;;7347542;32;20575;-60
2024/01/24 11:37:19;;;;;;;22.55;4.55;;;11.50;99.90;;;;;;7349484;32;20289;-59
2024/01/24 11:41:23;;;;;;;30.00;4.07;;;11.40;99.90;;;;;;7339087;32;20177;-59
2024/01/24 11:45:25;;;;;;;26.25;4.65;;;11.40;99.90;;;;;;7344102;32;20178;-60
2024/01/24 11:49:27;;;;;;;29.00;3.85;;;11.20;99.90;;;;;;7341479;32;20156;-60
2024/01/24 11:53:30;;;;;;;23.38;4.40;;;11.30;99.90;;;;;;7342215;32;20846;-59
2024/01/24 11:57:32;;;;;;;23.52;4.28;;;11.20;99.90;;;;;;7341052;32;20112;-59
2024/01/24 12:01:34;;;;;;;23.62;3.83;;;11.20;99.90;;;;;;7346917;32;20326;-59
2024/01/24 12:05:36;;;;;;;25.12;3.53;;;11.30;99.90;;;;;;7343476;32;20210;-59
2024/01/24 12:09:39;;;;;;;28.85;4.55;;;11.30;99.90;;;;;;7339238;32;20131;-58
2024/01/24 12:13:41;;;;;;;21.70;4.03;;;11.40;99.90;;;;;;7342272;32;20126;-59
2024/01/24 12:17:43;;;;;;;26.92;4.18;;;11.40;99.90;;;;;;7332224;32;20104;-57
2024/01/24 12:21:46;;;;;;;31.30;4.60;;;11.30;99.90;;;;;;7341863;32;20103;-58
2024/01/24 12:25:48;;;;;;;30.10;4.12;;;11.30;99.90;;;;;;7336657;32;20225;-58
2024/01/24 12:29:52;;;;;;;23.77;3.62;;;11.30;99.90;;;;;;7341766;32;20218;-59
2024/01/24 12:33:55;;;;;;;23.52;4.07;;;11.30;99.90;;;;;;7339297;32;20754;-59
2024/01/24 12:37:59;;;;;;;26.27;4.78;;;11.20;99.90;;;;;;7341301;32;20202;-59
2024/01/24 12:42:01;;;;;;;26.83;4.18;;;11.30;99.90;;;;;;7343713;32;20284;-58
2024/01/24 12:46:05;;;;;;;19.08;3.62;;;11.20;99.90;;;;;;7340994;32;20124;-59
2024/01/24 12:50:11;;;;;;;22.20;3.92;;;11.30;99.90;;;;;;7342325;32;20115;-60
2024/01/24 12:54:14;;;;;;;22.10;4.07;;;11.40;99.90;;;;;;7337516;32;20131;-58
2024/01/24 12:58:16;;;;;;;21.20;3.70;;;11.40;99.90;;;;;;7339331;32;20137;-59
2024/01/24 13:02:18;;;;;;;20.85;3.97;;;11.40;99.90;;;;;;7341562;32;20130;-59
2024/01/24 13:06:20;;;;;;;27.50;3.78;;;11.30;99.90;;;;;;7340115;32;20445;-61
2024/01/24 13:10:22;;;;;;;17.58;2.80;;;11.40;99.90;;;;;;7335481;32;20559;-61
2024/01/24 13:14:24;;;;;;;19.05;3.50;;;11.70;99.90;;;;;;7338975;32;20202;-56
2024/01/24 13:18:26;;;;;;;24.02;4.03;;;11.70;99.90;;;;;;7331595;32;20099;-58
2024/01/24 13:22:29;;;;;;;25.95;3.53;;;11.80;99.90;;;;;;7334187;32;20245;-57
2024/01/24 13:26:31;;;;;;;18.08;3.50;;;11.70;99.90;;;;;;7338170;32;20249;-57
2024/01/24 13:30:34;;;;;;;23.80;3.30;;;11.90;99.90;;;;;;7333264;32;20541;-58
2024/01/24 13:34:36;;;;;;;20.40;3.40;;;11.80;99.90;;;;;;7336374;32;20222;-57
2024/01/24 13:38:39;;;;;;;21.10;3.37;;;11.70;99.90;;;;;;7335521;32;20096;-58
2024/01/24 13:42:41;;;;;;;25.00;3.33;;;11.60;99.90;;;;;;7337596;32;20137;-57
2024/01/24 13:46:44;;;;;;;20.62;3.47;;;11.60;99.90;;;;;;7340959;32;20204;-58
2024/01/24 13:50:45;;;;;;;22.62;3.62;;;11.60;99.90;;;;;;7324238;32;20214;-58
2024/01/24 13:54:47;;;;;;;20.58;3.60;;;11.70;99.90;;;;;;7340561;32;20121;-56
2024/01/24 13:58:50;;;;;;;20.48;3.30;;;11.80;99.90;;;;;;7342054;32;20204;-59
2024/01/24 14:02:53;;;;;;;27.65;3.95;;;11.80;99.90;;;;;;7342233;32;20691;-61
2024/01/24 14:06:55;;;;;;;16.95;3.05;;;11.70;99.90;;;;;;7335545;32;20430;-61
2024/01/24 14:10:56;;;;;;;23.38;3.97;;;11.80;99.90;;;;;;7341479;32;20115;-58
2024/01/24 14:14:58;;;;;;;22.23;3.85;;;11.80;99.90;;;;;;7344078;32;20125;-58
2024/01/24 14:19:02;;;;;;;17.77;3.25;;;11.50;99.90;;;;;;7341386;32;20183;-58
2024/01/24 14:23:06;;;;;;;15.82;2.53;;;11.50;99.90;;;;;;7339794;32;20493;-57
2024/01/24 14:27:07;;;;;;;21.98;3.17;;;11.50;99.90;;;;;;7342813;32;20107;-58
2024/01/24 14:31:09;;;;;;;25.12;3.22;;;11.40;99.90;;;;;;7342635;32;20128;-58
2024/01/24 14:35:16;;;;;;;17.85;2.62;;;11.30;99.90;;;;;;7343013;32;20197;-57
2024/01/24 14:39:18;;;;;;;22.33;3.80;;;11.30;99.90;;;;;;7342898;32;20283;-58
2024/01/24 14:43:19;;;;;;;19.83;2.95;;;11.20;99.90;;;;;;7342000;32;20205;-58
2024/01/24 14:47:21;;;;;;;17.95;2.97;;;11.20;99.90;;;;;;7341588;32;20221;-57
2024/01/24 14:51:25;;;;;;;20.37;3.35;;;11.20;99.90;;;;;;7338471;32;20178;-59
2024/01/24 14:55:26;;;;;;;23.48;3.95;;;11.10;99.90;;;;;;7341128;32;20555;-59
2024/01/24 14:59:29;;;;;;;23.52;3.15;;;11.10;99.90;;;;;;7345267;32;20532;-57
2024/01/24 15:03:31;;;;;;;20.50;3.25;;;11.10;99.90;;;;;;7338848;32;20100;-59
2024/01/24 15:07:32;;;;;;;19.55;3.40;;;11.00;99.90;;;;;;7342264;32;20445;-59
2024/01/24 15:11:34;;;;;;;20.52;3.60;;;11.00;99.90;;;;;;7348725;32;20103;-59
2024/01/24 15:15:36;;;;;;;24.75;3.30;;;10.90;99.90;;;;;;7349078;32;20092;-58
2024/01/24 15:19:45;;;;;;;14.32;2.62;;;10.80;99.90;;;;;;7343170;32;20170;-59
2024/01/24 15:23:49;;;;;;;19.60;2.90;;;10.70;99.90;;;;;;7342480;32;20107;-58
2024/01/24 15:27:52;;;;;;;20.45;3.33;;;10.70;99.90;;;;;;7347372;32;20213;-59
2024/01/24 15:31:54;;;;;;;16.37;3.60;;;10.70;99.90;;;;;;7343361;32;20301;-59
2024/01/24 15:35:58;;;;;;;20.50;3.08;;;10.60;99.90;;;;;;7346999;32;20127;-60
2024/01/24 15:40:02;;;;;;;25.00;4.15;;;10.60;99.90;;;;;;7344187;32;20297;-58
2024/01/24 15:44:24;;;;;;;26.20;3.42;;;10.60;99.90;;;;;;7343646;32;20143;-57
2024/01/24 15:48:26;;;;;;;17.58;2.62;;;10.50;99.90;;;;;;7344910;32;20145;-58
2024/01/24 15:52:28;;;;;;;30.08;3.60;;;10.50;99.90;;;;;;7345705;32;20519;-59
2024/01/24 15:56:30;;;;;;;22.77;4.07;;;10.50;99.90;;;;;;7341192;32;20260;-59
2024/01/24 16:00:32;;;;;;;15.82;2.87;;;10.40;99.90;;;;;;7342981;32;20232;-58
2024/01/24 16:04:36;;;;;;;21.73;3.20;;;10.30;99.90;;;;;;7340906;32;20194;-59
2024/01/24 16:08:38;;;;;;;20.02;2.87;;;10.30;99.90;;;;;;7344869;32;20537;-58
2024/01/24 16:12:40;;;;;;;12.98;2.80;;;10.30;99.90;;;;;;7340762;32;20268;-59
2024/01/24 16:16:44;;;;;;;20.33;3.10;;;10.30;99.90;;;;;;7336935;32;20192;-58
2024/01/24 16:20:46;;;;;;;21.10;2.67;;;10.30;99.90;;;;;;7345321;32;20100;-58
2024/01/24 16:24:48;;;;;;;22.50;3.58;;;10.30;99.90;;;;;;7345998;32;20231;-57
2024/01/24 16:28:49;;;;;;;19.90;3.05;;;10.20;99.90;;;;;;7338039;32;20634;-57
2024/01/24 16:32:55;;;;;;;18.70;3.60;;;10.20;99.90;;;;;;7339102;32;20120;-58
2024/01/24 16:36:57;;;;;;;18.30;3.03;;;10.20;99.90;;;;;;7344160;32;20183;-58
2024/01/24 16:40:59;;;;;;;22.67;3.37;;;10.10;99.90;;;;;;7340101;32;20227;-58
2024/01/24 16:45:02;;;;;;;22.92;3.47;;;10.20;99.90;;;;;;7338545;32;20099;-58
2024/01/24 16:49:04;;;;;;;19.12;3.00;;;10.20;99.90;;;;;;7339998;32;20437;-58
2024/01/24 16:53:05;;;;;;;17.60;2.78;;;10.10;99.90;;;;;;7341962;32;20121;-57
2024/01/24 16:57:12;;;;;;;19.40;2.80;;;10.10;99.90;;;;;;7345069;32;20944;-58
2024/01/24 17:01:14;;;;;;;21.35;3.75;;;10.00;99.90;;;;;;7341270;32;20134;-57
2024/01/24 17:05:16;;;;;;;24.30;3.30;;;10.10;99.90;;;;;;7344006;32;20590;-58
2024/01/24 17:09:18;;;;;;;24.55;3.28;;;10.00;99.90;;;;;;7339103;32;21325;-58
2024/01/24 17:13:20;;;;;;;19.70;3.40;;;10.00;99.90;;;;;;7340957;32;20233;-58
2024/01/24 17:17:22;;;;;;;17.08;3.12;;;10.10;99.90;;;;;;7345032;32;20549;-58
2024/01/24 17:21:24;;;;;;;15.18;3.08;;;10.00;99.90;;;;;;7339736;32;20953;-58
2024/01/24 17:25:26;;;;;;;23.12;3.72;;;10.00;99.90;;;;;;7342896;32;20126;-57
2024/01/24 17:29:28;;;;;;;21.12;3.20;;;10.10;99.90;;;;;;7343138;32;20107;-58
2024/01/24 17:33:31;;;;;;;16.08;3.03;;;10.00;99.90;;;;;;7338831;32;20137;-57
2024/01/24 17:37:33;;;;;;;15.90;3.10;;;10.00;99.90;;;;;;7342314;32;20191;-57
2024/01/24 17:41:35;;;;;;;22.40;3.85;;;10.00;99.90;;;;;;7346100;32;20179;-58
2024/01/24 17:45:37;;;;;;;20.02;3.35;;;10.00;99.90;;;;;;7345568;32;20279;-59
2024/01/24 17:49:38;;;;;;;18.42;3.17;;;10.00;99.90;;;;;;7344247;32;20174;-58
2024/01/24 17:53:41;;;;;;;19.30;3.37;;;10.00;99.90;;;;;;7343468;32;20182;-58
2024/01/24 17:57:44;;;;;;;25.65;3.72;;;10.00;99.90;;;;;;7342714;32;20214;-57
2024/01/24 18:01:46;;;;;;;20.65;3.53;;;9.90;99.90;;;;;;7342649;32;20129;-58
2024/01/24 18:05:48;;;;;;;20.92;3.47;;;9.90;99.90;;;;;;7335504;32;20127;-57
2024/01/24 18:09:54;;;;;;;20.85;3.50;;;9.90;99.90;;;;;;7345062;32;20481;-58
2024/01/24 18:13:56;;;;;;;23.17;4.18;;;9.90;99.90;;;;;;7340639;32;20123;-58
2024/01/24 18:18:00;;;;;;;19.75;3.97;;;9.80;99.90;;;;;;7340102;32;20190;-59
2024/01/24 18:22:01;;;;;;;18.67;3.50;;;9.90;99.90;;;;;;7345648;32;20214;-58
2024/01/24 18:26:03;;;;;;;23.92;4.28;;;9.90;99.90;;;;;;7341039;32;20252;-57
2024/01/24 18:30:06;;;;;;;27.15;4.18;;;9.80;99.90;;;;;;7337902;32;20369;-57
2024/01/24 18:34:08;;;;;;;21.50;4.10;;;9.80;99.90;;;;;;7338352;32;20294;-58
2024/01/24 18:38:09;;;;;;;20.55;4.62;;;9.80;99.90;;;;;;7340677;32;20194;-58
2024/01/24 18:42:12;;;;;;;31.73;4.70;;;9.80;99.90;;;;;;7343939;32;20485;-58
2024/01/24 18:46:14;;;;;;;32.33;4.12;;;9.80;99.90;;;;;;7342352;32;20521;-58
2024/01/24 18:50:16;;;;;;;31.33;4.78;;;9.70;99.90;;;;;;7340028;32;20130;-57
2024/01/24 18:54:17;;;;;;;30.30;5.47;;;9.70;99.90;;;;;;7343562;32;20138;-58
2024/01/24 18:58:20;;;;;;;27.55;5.57;;;9.70;99.90;;;;;;7344112;32;20543;-58
2024/01/24 19:02:22;;;;;;;30.48;5.15;;;9.70;99.90;;;;;;7340704;32;20461;-57
2024/01/24 19:06:27;;;;;;;31.85;5.60;;;9.70;99.90;;;;;;7340606;32;20386;-58
2024/01/24 19:10:29;;;;;;;26.70;5.05;;;9.60;99.90;;;;;;7339655;32;20174;-58
2024/01/24 19:14:30;;;;;;;35.35;5.05;;;9.60;99.90;;;;;;7341450;32;20129;-57
2024/01/24 19:18:33;;;;;;;24.92;4.55;;;9.70;99.90;;;;;;7336424;32;20210;-58
2024/01/24 19:22:34;;;;;;;31.60;5.90;;;9.60;99.90;;;;;;7339669;32;20116;-56
2024/01/24 19:26:39;;;;;;;42.05;5.87;;;9.60;99.90;;;;;;7340267;32;20139;-58
2024/01/24 19:30:41;;;;;;;25.60;4.95;;;9.50;99.90;;;;;;7334579;32;20141;-57
2024/01/24 19:34:55;;;;;;;28.30;5.22;;;9.50;99.90;;;;;;7338280;32;20242;-58
2024/01/24 19:38:57;;;;;;;27.48;4.95;;;9.40;99.90;;;;;;7335669;32;20275;-56
2024/01/24 19:42:59;;;;;;;26.85;5.05;;;9.30;99.90;;;;;;7342064;32;20107;-58
2024/01/24 19:47:01;;;;;;;36.42;5.50;;;9.20;99.90;;;;;;7343748;32;20293;-57
2024/01/24 19:51:03;;;;;;;24.87;5.20;;;9.20;99.90;;;;;;7344450;32;20797;-59
2024/01/24 19:55:07;;;;;;;27.33;4.85;;;9.10;99.90;;;;;;7338271;32;20115;-59
2024/01/24 19:59:09;;;;;;;29.40;6.50;;;9.00;99.90;;;;;;7334413;32;20708;-59
2024/01/24 20:03:11;;;;;;;36.05;6.18;;;8.90;99.90;;;;;;7340640;32;20698;-55
2024/01/24 20:07:13;;;;;;;33.10;5.35;;;9.00;99.90;;;;;;7340022;32;20502;-57
2024/01/24 20:11:16;;;;;;;27.75;5.85;;;8.90;99.90;;;;;;7341038;32;20123;-58
2024/01/24 20:15:18;;;;;;;27.05;5.40;;;8.90;99.90;;;;;;7339634;32;20111;-57
2024/01/24 20:19:20;;;;;;;34.05;6.07;;;8.90;99.90;;;;;;7348031;32;20229;-58
2024/01/24 20:23:22;;;;;;;33.47;6.60;;;9.00;99.90;;;;;;7341207;32;20213;-57
2024/01/24 20:27:24;;;;;;;35.83;5.05;;;9.00;99.90;;;;;;7342246;32;20701;-58
2024/01/24 20:31:26;;;;;;;38.17;6.80;;;9.00;99.90;;;;;;7340122;32;20107;-60
2024/01/24 20:35:28;;;;;;;32.97;6.20;;;9.10;99.90;;;;;;7342696;32;20115;-55
2024/01/24 20:39:29;;;;;;;31.02;5.47;;;9.00;99.90;;;;;;7339261;32;20127;-57
2024/01/24 20:43:35;;;;;;;36.42;7.30;;;9.00;99.90;;;;;;7338829;32;20133;-56
2024/01/24 20:47:36;;;;;;;37.33;5.80;;;9.00;99.90;;;;;;7345197;32;20107;-57
2024/01/24 20:51:39;;;;;;;30.37;5.25;;;9.00;99.90;;;;;;7345419;32;20291;-56